Wednesday, September 20, 2017, 9:32 PM EDT

KOKV, Winchester Regional

Location: Winchester, VA, United States Lat: 39.15
Local Time: 9:32 PM EDT ( 1:32 GMT) Lon: -78.15
Time Zone: US/Eastern Elev: 728 ft

Show me the last for .
Show Decoded

2017-09-20 21:15 METAR KOKV 210115Z AUTO 31003KT 10SM CLR 17/15 A3001 RMK AO2 =
2017-09-20 20:55 METAR KOKV 210055Z AUTO 00000KT 10SM CLR 18/15 A3000 RMK AO2 =
2017-09-20 20:35 METAR KOKV 210035Z AUTO 00000KT 10SM CLR 19/15 A2999 RMK AO2 =
2017-09-20 20:15 METAR KOKV 210015Z AUTO 00000KT 10SM CLR 20/15 A2999 RMK AO2 =
2017-09-20 19:55 METAR KOKV 202355Z AUTO 00000KT 10SM CLR 20/15 A2998 RMK AO2 =
2017-09-20 19:35 METAR KOKV 202335Z AUTO 00000KT 10SM CLR 21/16 A2998 RMK AO2 =
2017-09-20 19:15 METAR KOKV 202315Z AUTO 00000KT 10SM CLR 22/16 A2998 RMK AO2 =
2017-09-20 18:55 METAR KOKV 202255Z AUTO 00000KT 10SM CLR 25/16 A2997 RMK AO2 =
2017-09-20 18:35 METAR KOKV 202235Z AUTO 00000KT 10SM CLR 27/15 A2997 RMK AO2 =
2017-09-20 18:15 METAR KOKV 202215Z AUTO 02003KT 10SM CLR 27/15 A2997 RMK AO2 =
2017-09-20 17:55 METAR KOKV 202155Z AUTO 00000KT 10SM CLR 28/15 A2997 RMK AO2 =
2017-09-20 17:35 METAR KOKV 202135Z AUTO 00000KT 10SM CLR 28/13 A2997 RMK AO2 =
2017-09-20 17:15 METAR KOKV 202115Z AUTO 04004KT 10SM CLR 28/13 A2996 RMK AO2 =
2017-09-20 16:55 METAR KOKV 202055Z AUTO 01004KT 10SM CLR 28/15 A2996 RMK AO2 =
2017-09-20 16:35 METAR KOKV 202035Z AUTO 32003KT 10SM CLR 28/14 A2995 RMK AO2 =
2017-09-20 16:15 METAR KOKV 202015Z AUTO 35004KT 10SM CLR 28/15 A2996 RMK AO2 =
2017-09-20 15:55 METAR KOKV 201955Z AUTO 32005G08KT 10SM CLR 28/14 A2996 RMK AO2 LTG DSNT SW =
2017-09-20 15:35 METAR KOKV 201935Z AUTO 30007KT 10SM CLR 28/15 A2996 RMK AO2 =
2017-09-20 15:15 METAR KOKV 201915Z AUTO 29007KT 10SM CLR 28/15 A2997 RMK AO2 =
2017-09-20 14:55 METAR KOKV 201855Z AUTO 29006KT 10SM CLR 28/16 A2997 RMK AO2 =
2017-09-20 14:35 METAR KOKV 201835Z AUTO 26004KT 10SM CLR 28/16 A2997 RMK AO2 =
2017-09-20 14:15 METAR KOKV 201815Z AUTO 35005KT 10SM CLR 28/16 A2997 RMK AO2 =
2017-09-20 13:55 METAR KOKV 201755Z AUTO 36003KT 10SM CLR 28/17 A2998 RMK AO2 =
2017-09-20 13:35 METAR KOKV 201735Z AUTO 04004KT 10SM CLR 27/16 A2999 RMK AO2 =
2017-09-20 13:15 METAR KOKV 201715Z AUTO 30006KT 10SM CLR 27/17 A3000 RMK AO2 =
2017-09-20 12:55 METAR KOKV 201655Z AUTO 29006KT 10SM CLR 27/16 A3000 RMK AO2 =
2017-09-20 12:35 METAR KOKV 201635Z AUTO 34003KT 10SM CLR 26/17 A3001 RMK AO2 =
2017-09-20 12:15 METAR KOKV 201615Z AUTO 34006KT 10SM CLR 26/17 A3001 RMK AO2 =
2017-09-20 11:55 METAR KOKV 201555Z AUTO 33008KT 10SM CLR 26/17 A3001 RMK AO2 =
2017-09-20 11:35 METAR KOKV 201535Z AUTO 32006KT 10SM CLR 25/17 A3002 RMK AO2 =
2017-09-20 11:15 METAR KOKV 201515Z AUTO 35005KT 10SM CLR 25/17 A3002 RMK AO2 =
2017-09-20 10:55 METAR KOKV 201455Z AUTO 33003KT 10SM CLR 24/17 A3002 RMK AO2 =
2017-09-20 10:35 METAR KOKV 201435Z AUTO 33004KT 10SM CLR 23/17 A3003 RMK AO2 =
2017-09-20 10:15 METAR KOKV 201415Z AUTO 30003KT 10SM CLR 23/17 A3003 RMK AO2 =
2017-09-20 09:55 METAR KOKV 201355Z AUTO 00000KT 10SM CLR 21/17 A3003 RMK AO2 =
2017-09-20 09:35 METAR KOKV 201335Z AUTO 00000KT 10SM CLR 20/17 A3003 RMK AO2 =
2017-09-20 09:15 METAR KOKV 201315Z AUTO 00000KT 10SM CLR 20/16 A3002 RMK AO2 =
2017-09-20 08:55 METAR KOKV 201255Z AUTO 00000KT 10SM CLR 18/16 A3002 RMK AO2 =
2017-09-20 08:35 METAR KOKV 201235Z AUTO 00000KT 10SM CLR 17/16 A3002 RMK AO2 =
2017-09-20 08:15 METAR KOKV 201215Z AUTO 00000KT 10SM CLR 16/16 A3001 RMK AO2 =
2017-09-20 07:55 METAR KOKV 201155Z AUTO 00000KT 7SM CLR 15/15 A3001 RMK AO2 =
2017-09-20 07:35 METAR KOKV 201135Z AUTO 00000KT 5SM BR CLR 14/13 A3000 RMK AO2 =
2017-09-20 07:15 METAR KOKV 201115Z AUTO 00000KT 1/2SM FG VV005 13/13 A3000 RMK AO2 =
2017-09-20 06:55 METAR KOKV 201055Z AUTO 00000KT 7SM CLR 13/13 A2999 RMK AO2 =
2017-09-20 06:35 METAR KOKV 201035Z AUTO 00000KT 7SM CLR 13/13 A2998 RMK AO2 =
2017-09-20 06:15 METAR KOKV 201015Z AUTO 00000KT 10SM CLR 15/14 A2998 RMK AO2 =
2017-09-20 05:55 METAR KOKV 200955Z AUTO 00000KT 10SM CLR 14/14 A2998 RMK AO2 =
2017-09-20 05:35 METAR KOKV 200935Z AUTO 00000KT 10SM CLR 15/14 A2997 RMK AO2 =
2017-09-20 05:15 METAR KOKV 200915Z AUTO 25003KT 10SM CLR 15/14 A2997 RMK AO2 =
2017-09-20 04:55 METAR KOKV 200855Z AUTO 00000KT 7SM CLR 14/14 A2997 RMK AO2 =
2017-09-20 04:35 METAR KOKV 200835Z AUTO 00000KT 5SM BR CLR 14/13 A2997 RMK AO2 =
2017-09-20 04:15 METAR KOKV 200815Z AUTO 00000KT 2 1/2SM BR CLR 13/13 A2997 RMK AO2 VIS 1V5 =
2017-09-20 03:55 METAR KOKV 200755Z AUTO 00000KT 5SM BR CLR 13/13 A2997 RMK AO2 =
2017-09-20 03:35 METAR KOKV 200735Z AUTO 00000KT 2 1/2SM BR CLR 13/13 A2997 RMK AO2 VIS 1V5 =
2017-09-20 03:15 METAR KOKV 200715Z AUTO 00000KT 4SM BR CLR 14/13 A2997 RMK AO2 =
2017-09-20 02:55 METAR KOKV 200655Z AUTO 00000KT 5SM BR CLR 14/13 A2997 RMK AO2 =
2017-09-20 02:35 METAR KOKV 200635Z AUTO 00000KT 4SM BR CLR 14/14 A2998 RMK AO2 =
2017-09-20 02:15 METAR KOKV 200615Z AUTO 00000KT 10SM CLR 14/13 A2998 RMK AO2 =
2017-09-20 01:55 METAR KOKV 200555Z AUTO 00000KT 10SM CLR 15/15 A2998 RMK AO2 =
2017-09-20 01:35 METAR KOKV 200535Z AUTO 00000KT 10SM CLR 17/15 A2998 RMK AO2 =
2017-09-20 01:15 METAR KOKV 200515Z AUTO 27003KT 10SM CLR 17/15 A2997 RMK AO2 =
2017-09-20 00:55 METAR KOKV 200455Z AUTO 30004KT 10SM CLR 17/15 A2997 RMK AO2 =
2017-09-20 00:35 METAR KOKV 200435Z AUTO 30004KT 10SM CLR 17/16 A2997 RMK AO2 =
2017-09-20 00:15 METAR KOKV 200415Z AUTO 00000KT 10SM CLR 15/15 A2997 RMK AO2 =
2017-09-19 23:55 METAR KOKV 200355Z AUTO 31003KT 10SM CLR 17/16 A2997 RMK AO2 =
2017-09-19 23:35 METAR KOKV 200335Z AUTO 32003KT 10SM CLR 16/15 A2997 RMK AO2 =
2017-09-19 23:15 METAR KOKV 200315Z AUTO 00000KT 10SM CLR 17/16 A2997 RMK AO2 =
2017-09-19 22:55 METAR KOKV 200255Z AUTO 00000KT 10SM CLR 16/16 A2997 RMK AO2 =
2017-09-19 22:35 METAR KOKV 200235Z AUTO 00000KT 10SM CLR 18/16 A2997 RMK AO2 =
2017-09-19 22:15 METAR KOKV 200215Z AUTO 00000KT 10SM CLR 17/16 A2997 RMK AO2 =
2017-09-19 22:00 METAR KOKV 200200Z AUTO 00000KT 10SM CLR 16/15 A2997 RMK AO2 =
2017-09-19 21:35 METAR KOKV 200135Z AUTO 00000KT 10SM CLR 18/17 A2996 RMK AO2 =

Support USWX by starting your Amazon purchase here.